sensor_id;sensor_type;location;lat;lon;timestamp;P1;durP1;ratioP1;P2;durP2;ratioP2
1350;SDS011;669;50.206;9.998;2024-03-08T00:00:14;25.20;;;16.30;;
1350;SDS011;669;50.206;9.998;2024-03-08T00:02:46;30.60;;;19.83;;
1350;SDS011;669;50.206;9.998;2024-03-08T00:05:17;23.90;;;15.50;;
1350;SDS011;669;50.206;9.998;2024-03-08T00:07:45;26.77;;;15.60;;
1350;SDS011;669;50.206;9.998;2024-03-08T00:10:13;31.70;;;19.67;;
1350;SDS011;669;50.206;9.998;2024-03-08T00:12:44;26.13;;;16.17;;
1350;SDS011;669;50.206;9.998;2024-03-08T00:15:16;26.57;;;16.60;;
1350;SDS011;669;50.206;9.998;2024-03-08T00:17:45;28.27;;;18.23;;
1350;SDS011;669;50.206;9.998;2024-03-08T00:20:14;28.97;;;18.07;;
1350;SDS011;669;50.206;9.998;2024-03-08T00:22:44;34.87;;;17.57;;
1350;SDS011;669;50.206;9.998;2024-03-08T00:25:12;25.07;;;17.20;;
1350;SDS011;669;50.206;9.998;2024-03-08T00:27:41;37.17;;;20.23;;
1350;SDS011;669;50.206;9.998;2024-03-08T00:30:09;27.80;;;17.33;;
1350;SDS011;669;50.206;9.998;2024-03-08T00:32:41;23.90;;;16.93;;
1350;SDS011;669;50.206;9.998;2024-03-08T00:35:09;27.93;;;17.70;;
1350;SDS011;669;50.206;9.998;2024-03-08T00:37:39;26.53;;;17.07;;
1350;SDS011;669;50.206;9.998;2024-03-08T00:40:08;23.60;;;16.20;;
1350;SDS011;669;50.206;9.998;2024-03-08T00:42:37;23.97;;;15.80;;
1350;SDS011;669;50.206;9.998;2024-03-08T00:45:06;26.30;;;17.13;;
1350;SDS011;669;50.206;9.998;2024-03-08T00:47:37;27.73;;;16.27;;
1350;SDS011;669;50.206;9.998;2024-03-08T00:50:07;25.03;;;16.10;;
1350;SDS011;669;50.206;9.998;2024-03-08T00:52:35;22.93;;;14.13;;
1350;SDS011;669;50.206;9.998;2024-03-08T00:55:03;23.13;;;14.87;;
1350;SDS011;669;50.206;9.998;2024-03-08T00:57:32;22.33;;;15.30;;
1350;SDS011;669;50.206;9.998;2024-03-08T01:00:02;25.63;;;15.83;;
1350;SDS011;669;50.206;9.998;2024-03-08T01:02:32;29.27;;;19.27;;
1350;SDS011;669;50.206;9.998;2024-03-08T01:05:02;26.20;;;18.40;;
1350;SDS011;669;50.206;9.998;2024-03-08T01:07:33;36.27;;;21.03;;
1350;SDS011;669;50.206;9.998;2024-03-08T01:10:01;29.40;;;18.17;;
1350;SDS011;669;50.206;9.998;2024-03-08T01:12:30;22.13;;;15.37;;
1350;SDS011;669;50.206;9.998;2024-03-08T01:14:58;27.20;;;17.00;;
1350;SDS011;669;50.206;9.998;2024-03-08T01:17:26;21.70;;;16.17;;
1350;SDS011;669;50.206;9.998;2024-03-08T01:19:54;29.27;;;16.47;;
1350;SDS011;669;50.206;9.998;2024-03-08T01:22:22;24.23;;;16.00;;
1350;SDS011;669;50.206;9.998;2024-03-08T01:24:51;26.63;;;15.97;;
1350;SDS011;669;50.206;9.998;2024-03-08T01:27:19;23.40;;;14.50;;
1350;SDS011;669;50.206;9.998;2024-03-08T01:29:47;22.33;;;14.20;;
1350;SDS011;669;50.206;9.998;2024-03-08T01:32:15;20.47;;;13.73;;
1350;SDS011;669;50.206;9.998;2024-03-08T01:34:45;24.57;;;14.83;;
1350;SDS011;669;50.206;9.998;2024-03-08T01:37:13;20.60;;;13.70;;
1350;SDS011;669;50.206;9.998;2024-03-08T01:39:41;18.23;;;12.63;;
1350;SDS011;669;50.206;9.998;2024-03-08T01:42:11;23.70;;;14.13;;
1350;SDS011;669;50.206;9.998;2024-03-08T01:44:41;21.33;;;14.70;;
1350;SDS011;669;50.206;9.998;2024-03-08T01:47:09;23.40;;;15.90;;
1350;SDS011;669;50.206;9.998;2024-03-08T01:49:38;26.27;;;15.47;;
1350;SDS011;669;50.206;9.998;2024-03-08T01:52:06;20.10;;;13.77;;
1350;SDS011;669;50.206;9.998;2024-03-08T01:54:35;19.93;;;14.33;;
1350;SDS011;669;50.206;9.998;2024-03-08T01:57:03;21.47;;;14.27;;
1350;SDS011;669;50.206;9.998;2024-03-08T01:59:33;22.00;;;14.47;;
1350;SDS011;669;50.206;9.998;2024-03-08T02:02:01;27.13;;;16.50;;
1350;SDS011;669;50.206;9.998;2024-03-08T02:04:30;21.57;;;16.30;;
1350;SDS011;669;50.206;9.998;2024-03-08T02:06:58;21.70;;;14.50;;
1350;SDS011;669;50.206;9.998;2024-03-08T02:09:26;23.40;;;14.97;;
1350;SDS011;669;50.206;9.998;2024-03-08T02:11:55;23.57;;;14.53;;
1350;SDS011;669;50.206;9.998;2024-03-08T02:14:24;22.37;;;15.17;;
1350;SDS011;669;50.206;9.998;2024-03-08T02:16:54;22.53;;;15.50;;
1350;SDS011;669;50.206;9.998;2024-03-08T02:19:24;24.80;;;15.50;;
1350;SDS011;669;50.206;9.998;2024-03-08T02:21:53;23.83;;;14.77;;
1350;SDS011;669;50.206;9.998;2024-03-08T02:24:21;22.37;;;15.00;;
1350;SDS011;669;50.206;9.998;2024-03-08T02:26:50;24.20;;;14.83;;
1350;SDS011;669;50.206;9.998;2024-03-08T02:29:18;29.47;;;19.27;;
1350;SDS011;669;50.206;9.998;2024-03-08T02:31:46;29.33;;;16.90;;
1350;SDS011;669;50.206;9.998;2024-03-08T02:34:14;28.83;;;16.17;;
1350;SDS011;669;50.206;9.998;2024-03-08T02:36:42;27.97;;;18.47;;
1350;SDS011;669;50.206;9.998;2024-03-08T02:39:12;34.03;;;17.57;;
1350;SDS011;669;50.206;9.998;2024-03-08T02:41:40;30.00;;;17.83;;
1350;SDS011;669;50.206;9.998;2024-03-08T02:44:08;27.43;;;17.60;;
1350;SDS011;669;50.206;9.998;2024-03-08T02:46:38;27.77;;;16.60;;
1350;SDS011;669;50.206;9.998;2024-03-08T02:49:06;24.47;;;15.50;;
1350;SDS011;669;50.206;9.998;2024-03-08T02:51:34;28.73;;;16.73;;
1350;SDS011;669;50.206;9.998;2024-03-08T02:54:03;28.67;;;17.80;;
1350;SDS011;669;50.206;9.998;2024-03-08T02:56:32;29.37;;;16.60;;
1350;SDS011;669;50.206;9.998;2024-03-08T02:59:01;24.50;;;16.60;;
1350;SDS011;669;50.206;9.998;2024-03-08T03:01:29;27.20;;;16.10;;
1350;SDS011;669;50.206;9.998;2024-03-08T03:03:58;30.20;;;17.00;;
1350;SDS011;669;50.206;9.998;2024-03-08T03:06:26;28.33;;;17.57;;
1350;SDS011;669;50.206;9.998;2024-03-08T03:08:54;25.97;;;15.63;;
1350;SDS011;669;50.206;9.998;2024-03-08T03:11:23;29.03;;;18.47;;
1350;SDS011;669;50.206;9.998;2024-03-08T03:13:53;28.27;;;16.87;;
1350;SDS011;669;50.206;9.998;2024-03-08T03:16:22;21.53;;;15.10;;
1350;SDS011;669;50.206;9.998;2024-03-08T03:18:50;25.37;;;15.70;;
1350;SDS011;669;50.206;9.998;2024-03-08T03:21:18;25.27;;;16.07;;
1350;SDS011;669;50.206;9.998;2024-03-08T03:23:47;31.33;;;16.73;;
1350;SDS011;669;50.206;9.998;2024-03-08T03:26:15;32.90;;;19.13;;
1350;SDS011;669;50.206;9.998;2024-03-08T03:28:43;29.37;;;18.03;;
1350;SDS011;669;50.206;9.998;2024-03-08T03:31:13;30.33;;;17.77;;
1350;SDS011;669;50.206;9.998;2024-03-08T03:33:41;28.20;;;17.13;;
1350;SDS011;669;50.206;9.998;2024-03-08T03:36:09;30.90;;;17.43;;
1350;SDS011;669;50.206;9.998;2024-03-08T03:38:38;28.83;;;18.13;;
1350;SDS011;669;50.206;9.998;2024-03-08T03:41:06;29.30;;;18.60;;
1350;SDS011;669;50.206;9.998;2024-03-08T03:43:36;27.00;;;16.23;;
1350;SDS011;669;50.206;9.998;2024-03-08T03:46:05;26.40;;;16.10;;
1350;SDS011;669;50.206;9.998;2024-03-08T03:48:35;29.90;;;18.90;;
1350;SDS011;669;50.206;9.998;2024-03-08T03:51:04;31.20;;;18.00;;
1350;SDS011;669;50.206;9.998;2024-03-08T03:53:31;39.80;;;22.13;;
1350;SDS011;669;50.206;9.998;2024-03-08T03:56:00;30.00;;;18.37;;
1350;SDS011;669;50.206;9.998;2024-03-08T03:58:28;28.53;;;17.73;;
1350;SDS011;669;50.206;9.998;2024-03-08T04:00:55;32.20;;;18.37;;
1350;SDS011;669;50.206;9.998;2024-03-08T04:03:23;34.60;;;22.03;;
1350;SDS011;669;50.206;9.998;2024-03-08T04:05:53;33.57;;;19.30;;
1350;SDS011;669;50.206;9.998;2024-03-08T04:08:21;32.70;;;19.97;;
1350;SDS011;669;50.206;9.998;2024-03-08T04:10:50;34.20;;;19.03;;
1350;SDS011;669;50.206;9.998;2024-03-08T04:13:18;38.57;;;20.30;;
1350;SDS011;669;50.206;9.998;2024-03-08T04:15:47;36.93;;;20.83;;
1350;SDS011;669;50.206;9.998;2024-03-08T04:18:15;44.40;;;24.77;;
1350;SDS011;669;50.206;9.998;2024-03-08T04:20:44;32.60;;;20.07;;
1350;SDS011;669;50.206;9.998;2024-03-08T04:23:14;40.60;;;21.70;;
1350;SDS011;669;50.206;9.998;2024-03-08T04:25:44;35.80;;;20.80;;
1350;SDS011;669;50.206;9.998;2024-03-08T04:28:12;36.37;;;21.10;;
1350;SDS011;669;50.206;9.998;2024-03-08T04:30:40;38.50;;;24.53;;
1350;SDS011;669;50.206;9.998;2024-03-08T04:33:09;36.40;;;22.23;;
1350;SDS011;669;50.206;9.998;2024-03-08T04:35:37;42.10;;;22.17;;
1350;SDS011;669;50.206;9.998;2024-03-08T04:38:05;34.57;;;21.60;;
1350;SDS011;669;50.206;9.998;2024-03-08T04:40:34;29.70;;;18.90;;
1350;SDS011;669;50.206;9.998;2024-03-08T04:43:03;45.10;;;24.10;;
1350;SDS011;669;50.206;9.998;2024-03-08T04:45:31;33.47;;;21.00;;
1350;SDS011;669;50.206;9.998;2024-03-08T04:48:00;39.87;;;22.67;;
1350;SDS011;669;50.206;9.998;2024-03-08T04:50:28;41.47;;;22.07;;
1350;SDS011;669;50.206;9.998;2024-03-08T04:52:56;32.80;;;20.33;;
1350;SDS011;669;50.206;9.998;2024-03-08T04:55:24;35.00;;;21.87;;
1350;SDS011;669;50.206;9.998;2024-03-08T04:57:53;39.50;;;21.83;;
1350;SDS011;669;50.206;9.998;2024-03-08T05:00:21;31.90;;;19.63;;
1350;SDS011;669;50.206;9.998;2024-03-08T05:02:49;33.77;;;20.07;;
1350;SDS011;669;50.206;9.998;2024-03-08T05:05:19;37.57;;;19.53;;
1350;SDS011;669;50.206;9.998;2024-03-08T05:07:49;30.07;;;18.70;;
1350;SDS011;669;50.206;9.998;2024-03-08T05:10:17;35.57;;;20.23;;
1350;SDS011;669;50.206;9.998;2024-03-08T05:12:45;35.53;;;20.53;;
1350;SDS011;669;50.206;9.998;2024-03-08T05:15:14;34.07;;;19.80;;
1350;SDS011;669;50.206;9.998;2024-03-08T05:17:42;30.83;;;17.43;;
1350;SDS011;669;50.206;9.998;2024-03-08T05:20:11;36.97;;;20.10;;
1350;SDS011;669;50.206;9.998;2024-03-08T05:22:39;37.67;;;20.00;;
1350;SDS011;669;50.206;9.998;2024-03-08T05:25:08;32.07;;;18.57;;
1350;SDS011;669;50.206;9.998;2024-03-08T05:27:36;32.53;;;19.97;;
1350;SDS011;669;50.206;9.998;2024-03-08T05:30:05;43.77;;;23.83;;
1350;SDS011;669;50.206;9.998;2024-03-08T05:32:35;34.20;;;20.13;;
1350;SDS011;669;50.206;9.998;2024-03-08T05:35:04;36.27;;;20.70;;
1350;SDS011;669;50.206;9.998;2024-03-08T05:37:33;34.80;;;20.30;;
1350;SDS011;669;50.206;9.998;2024-03-08T05:40:01;32.77;;;21.10;;
1350;SDS011;669;50.206;9.998;2024-03-08T05:42:41;36.00;;;19.50;;
1350;SDS011;669;50.206;9.998;2024-03-08T05:45:09;38.83;;;20.73;;
1350;SDS011;669;50.206;9.998;2024-03-08T05:47:40;33.90;;;21.70;;
1350;SDS011;669;50.206;9.998;2024-03-08T05:50:08;27.57;;;18.13;;
1350;SDS011;669;50.206;9.998;2024-03-08T05:52:37;31.93;;;18.17;;
1350;SDS011;669;50.206;9.998;2024-03-08T05:55:06;30.90;;;18.33;;
1350;SDS011;669;50.206;9.998;2024-03-08T05:57:36;36.97;;;20.90;;
1350;SDS011;669;50.206;9.998;2024-03-08T06:00:06;28.57;;;19.10;;
1350;SDS011;669;50.206;9.998;2024-03-08T06:02:37;29.17;;;18.20;;
1350;SDS011;669;50.206;9.998;2024-03-08T06:05:10;32.83;;;20.40;;
1350;SDS011;669;50.206;9.998;2024-03-08T06:07:38;34.23;;;18.73;;
1350;SDS011;669;50.206;9.998;2024-03-08T06:10:08;35.97;;;22.47;;
1350;SDS011;669;50.206;9.998;2024-03-08T06:12:38;37.60;;;22.67;;
1350;SDS011;669;50.206;9.998;2024-03-08T06:15:08;35.33;;;19.73;;
1350;SDS011;669;50.206;9.998;2024-03-08T06:17:41;35.83;;;20.90;;
1350;SDS011;669;50.206;9.998;2024-03-08T06:20:11;31.80;;;20.03;;
1350;SDS011;669;50.206;9.998;2024-03-08T06:22:39;34.13;;;20.87;;
1350;SDS011;669;50.206;9.998;2024-03-08T06:25:08;30.10;;;19.27;;
1350;SDS011;669;50.206;9.998;2024-03-08T06:27:37;31.93;;;20.43;;
1350;SDS011;669;50.206;9.998;2024-03-08T06:30:06;32.73;;;19.03;;
1350;SDS011;669;50.206;9.998;2024-03-08T06:32:36;33.43;;;20.40;;
1350;SDS011;669;50.206;9.998;2024-03-08T06:35:04;31.90;;;19.80;;
1350;SDS011;669;50.206;9.998;2024-03-08T06:37:34;34.60;;;20.83;;
1350;SDS011;669;50.206;9.998;2024-03-08T06:40:02;31.90;;;20.13;;
1350;SDS011;669;50.206;9.998;2024-03-08T06:42:31;30.77;;;19.90;;
1350;SDS011;669;50.206;9.998;2024-03-08T06:45:01;28.97;;;18.47;;
1350;SDS011;669;50.206;9.998;2024-03-08T06:47:31;31.30;;;21.13;;
1350;SDS011;669;50.206;9.998;2024-03-08T06:50:00;31.73;;;19.63;;
1350;SDS011;669;50.206;9.998;2024-03-08T06:52:28;33.00;;;21.13;;
1350;SDS011;669;50.206;9.998;2024-03-08T06:54:57;25.93;;;18.27;;
1350;SDS011;669;50.206;9.998;2024-03-08T06:57:28;24.67;;;16.40;;
1350;SDS011;669;50.206;9.998;2024-03-08T06:59:56;28.87;;;17.90;;
1350;SDS011;669;50.206;9.998;2024-03-08T07:02:24;27.83;;;19.73;;
1350;SDS011;669;50.206;9.998;2024-03-08T07:04:52;26.20;;;17.80;;
1350;SDS011;669;50.206;9.998;2024-03-08T07:07:20;27.47;;;19.70;;
1350;SDS011;669;50.206;9.998;2024-03-08T07:09:48;26.23;;;17.27;;
1350;SDS011;669;50.206;9.998;2024-03-08T07:12:18;26.00;;;19.43;;
1350;SDS011;669;50.206;9.998;2024-03-08T07:14:47;26.87;;;19.07;;
1350;SDS011;669;50.206;9.998;2024-03-08T07:17:15;25.83;;;17.67;;
1350;SDS011;669;50.206;9.998;2024-03-08T07:19:43;26.60;;;18.87;;
1350;SDS011;669;50.206;9.998;2024-03-08T07:22:11;25.80;;;18.60;;
1350;SDS011;669;50.206;9.998;2024-03-08T07:24:39;30.30;;;19.57;;
1350;SDS011;669;50.206;9.998;2024-03-08T07:27:23;24.50;;;18.30;;
1350;SDS011;669;50.206;9.998;2024-03-08T07:29:51;25.37;;;18.90;;
1350;SDS011;669;50.206;9.998;2024-03-08T07:32:34;23.60;;;17.50;;
1350;SDS011;669;50.206;9.998;2024-03-08T07:35:01;25.30;;;18.53;;
1350;SDS011;669;50.206;9.998;2024-03-08T07:37:30;22.77;;;17.07;;
1350;SDS011;669;50.206;9.998;2024-03-08T07:39:58;27.37;;;17.70;;
1350;SDS011;669;50.206;9.998;2024-03-08T07:42:28;25.07;;;18.10;;
1350;SDS011;669;50.206;9.998;2024-03-08T07:44:56;24.40;;;17.83;;
1350;SDS011;669;50.206;9.998;2024-03-08T07:47:24;21.93;;;17.53;;
1350;SDS011;669;50.206;9.998;2024-03-08T07:49:53;22.97;;;17.80;;
1350;SDS011;669;50.206;9.998;2024-03-08T07:52:21;33.97;;;19.27;;
1350;SDS011;669;50.206;9.998;2024-03-08T07:54:49;24.97;;;18.00;;
1350;SDS011;669;50.206;9.998;2024-03-08T07:57:18;23.43;;;17.30;;
1350;SDS011;669;50.206;9.998;2024-03-08T07:59:48;25.33;;;17.20;;
1350;SDS011;669;50.206;9.998;2024-03-08T08:02:16;23.77;;;17.67;;
1350;SDS011;669;50.206;9.998;2024-03-08T08:04:45;25.53;;;17.80;;
1350;SDS011;669;50.206;9.998;2024-03-08T08:07:13;26.07;;;18.30;;
1350;SDS011;669;50.206;9.998;2024-03-08T08:09:41;25.83;;;18.10;;
1350;SDS011;669;50.206;9.998;2024-03-08T08:12:09;25.43;;;17.10;;
1350;SDS011;669;50.206;9.998;2024-03-08T08:14:38;24.73;;;17.30;;
1350;SDS011;669;50.206;9.998;2024-03-08T08:17:08;21.90;;;16.53;;
1350;SDS011;669;50.206;9.998;2024-03-08T08:19:37;24.87;;;17.80;;
1350;SDS011;669;50.206;9.998;2024-03-08T08:22:05;32.17;;;19.53;;
1350;SDS011;669;50.206;9.998;2024-03-08T08:24:35;26.20;;;17.20;;
1350;SDS011;669;50.206;9.998;2024-03-08T08:27:04;24.70;;;16.87;;
1350;SDS011;669;50.206;9.998;2024-03-08T08:29:33;19.70;;;15.40;;
1350;SDS011;669;50.206;9.998;2024-03-08T08:32:02;23.73;;;18.77;;
1350;SDS011;669;50.206;9.998;2024-03-08T08:34:31;23.60;;;16.63;;
1350;SDS011;669;50.206;9.998;2024-03-08T08:36:59;22.87;;;17.60;;
1350;SDS011;669;50.206;9.998;2024-03-08T08:39:27;26.23;;;17.23;;
1350;SDS011;669;50.206;9.998;2024-03-08T08:41:56;23.50;;;16.67;;
1350;SDS011;669;50.206;9.998;2024-03-08T08:44:24;26.67;;;17.43;;
1350;SDS011;669;50.206;9.998;2024-03-08T08:46:53;23.70;;;16.93;;
1350;SDS011;669;50.206;9.998;2024-03-08T08:49:32;26.37;;;19.13;;
1350;SDS011;669;50.206;9.998;2024-03-08T08:52:01;21.73;;;17.77;;
1350;SDS011;669;50.206;9.998;2024-03-08T08:54:41;23.07;;;17.03;;
1350;SDS011;669;50.206;9.998;2024-03-08T08:57:14;23.43;;;19.63;;
1350;SDS011;669;50.206;9.998;2024-03-08T08:59:42;29.47;;;20.80;;
1350;SDS011;669;50.206;9.998;2024-03-08T09:02:12;20.60;;;16.70;;
1350;SDS011;669;50.206;9.998;2024-03-08T09:04:45;23.27;;;18.03;;
1350;SDS011;669;50.206;9.998;2024-03-08T09:07:14;26.47;;;18.17;;
1350;SDS011;669;50.206;9.998;2024-03-08T09:09:42;24.33;;;17.43;;
1350;SDS011;669;50.206;9.998;2024-03-08T09:12:10;23.37;;;17.50;;
1350;SDS011;669;50.206;9.998;2024-03-08T09:14:39;27.70;;;18.10;;
1350;SDS011;669;50.206;9.998;2024-03-08T09:17:07;25.80;;;18.20;;
1350;SDS011;669;50.206;9.998;2024-03-08T09:19:36;25.10;;;17.20;;
1350;SDS011;669;50.206;9.998;2024-03-08T09:22:05;23.23;;;17.80;;
1350;SDS011;669;50.206;9.998;2024-03-08T09:24:33;25.20;;;17.33;;
1350;SDS011;669;50.206;9.998;2024-03-08T09:27:01;26.43;;;18.80;;
1350;SDS011;669;50.206;9.998;2024-03-08T09:29:29;23.60;;;16.50;;
1350;SDS011;669;50.206;9.998;2024-03-08T09:31:57;18.63;;;15.03;;
1350;SDS011;669;50.206;9.998;2024-03-08T09:34:25;23.23;;;16.93;;
1350;SDS011;669;50.206;9.998;2024-03-08T09:37:04;20.10;;;15.80;;
1350;SDS011;669;50.206;9.998;2024-03-08T09:39:32;26.80;;;17.33;;
1350;SDS011;669;50.206;9.998;2024-03-08T09:42:00;25.40;;;17.87;;
1350;SDS011;669;50.206;9.998;2024-03-08T09:44:29;24.47;;;17.13;;
1350;SDS011;669;50.206;9.998;2024-03-08T09:46:58;18.77;;;16.40;;
1350;SDS011;669;50.206;9.998;2024-03-08T09:49:28;22.63;;;16.63;;
1350;SDS011;669;50.206;9.998;2024-03-08T09:51:56;23.33;;;16.83;;
1350;SDS011;669;50.206;9.998;2024-03-08T09:54:26;21.10;;;16.50;;
1350;SDS011;669;50.206;9.998;2024-03-08T09:56:54;25.23;;;18.03;;
1350;SDS011;669;50.206;9.998;2024-03-08T09:59:22;18.67;;;15.00;;
1350;SDS011;669;50.206;9.998;2024-03-08T10:02:14;18.03;;;15.00;;
1350;SDS011;669;50.206;9.998;2024-03-08T10:04:43;23.38;;;18.55;;
1350;SDS011;669;50.206;9.998;2024-03-08T10:07:13;21.63;;;16.93;;
1350;SDS011;669;50.206;9.998;2024-03-08T10:09:43;19.57;;;14.90;;
1350;SDS011;669;50.206;9.998;2024-03-08T10:12:16;20.20;;;14.90;;
1350;SDS011;669;50.206;9.998;2024-03-08T10:14:46;19.67;;;15.43;;
1350;SDS011;669;50.206;9.998;2024-03-08T10:17:14;23.57;;;16.40;;
1350;SDS011;669;50.206;9.998;2024-03-08T10:19:49;19.87;;;15.90;;
1350;SDS011;669;50.206;9.998;2024-03-08T10:22:18;23.07;;;14.87;;
1350;SDS011;669;50.206;9.998;2024-03-08T10:24:47;20.50;;;15.63;;
1350;SDS011;669;50.206;9.998;2024-03-08T10:27:16;20.77;;;15.13;;
1350;SDS011;669;50.206;9.998;2024-03-08T10:29:46;25.50;;;16.43;;
1350;SDS011;669;50.206;9.998;2024-03-08T10:32:15;21.57;;;16.50;;
1350;SDS011;669;50.206;9.998;2024-03-08T10:34:43;19.20;;;15.30;;
1350;SDS011;669;50.206;9.998;2024-03-08T10:37:12;24.17;;;16.97;;
1350;SDS011;669;50.206;9.998;2024-03-08T10:39:45;24.37;;;17.13;;
1350;SDS011;669;50.206;9.998;2024-03-08T10:42:28;22.00;;;16.47;;
1350;SDS011;669;50.206;9.998;2024-03-08T10:45:03;22.90;;;16.93;;
1350;SDS011;669;50.206;9.998;2024-03-08T10:47:40;20.67;;;15.53;;
1350;SDS011;669;50.206;9.998;2024-03-08T10:50:10;23.00;;;16.03;;
1350;SDS011;669;50.206;9.998;2024-03-08T10:52:48;21.23;;;16.40;;
1350;SDS011;669;50.206;9.998;2024-03-08T10:55:19;21.67;;;16.70;;
1350;SDS011;669;50.206;9.998;2024-03-08T10:57:47;25.20;;;16.93;;
1350;SDS011;669;50.206;9.998;2024-03-08T11:00:17;22.97;;;17.03;;
1350;SDS011;669;50.206;9.998;2024-03-08T11:02:53;21.70;;;16.53;;
1350;SDS011;669;50.206;9.998;2024-03-08T11:05:31;21.50;;;16.20;;
1350;SDS011;669;50.206;9.998;2024-03-08T11:08:15;25.73;;;17.20;;
1350;SDS011;669;50.206;9.998;2024-03-08T11:10:47;22.80;;;16.47;;
1350;SDS011;669;50.206;9.998;2024-03-08T11:13:33;21.60;;;15.13;;
1350;SDS011;669;50.206;9.998;2024-03-08T11:16:02;23.93;;;16.03;;
1350;SDS011;669;50.206;9.998;2024-03-08T11:18:35;24.00;;;17.50;;
1350;SDS011;669;50.206;9.998;2024-03-08T11:21:04;20.60;;;15.90;;
1350;SDS011;669;50.206;9.998;2024-03-08T11:23:39;24.17;;;17.30;;
1350;SDS011;669;50.206;9.998;2024-03-08T11:26:18;20.93;;;16.97;;
1350;SDS011;669;50.206;9.998;2024-03-08T11:28:47;24.60;;;18.23;;
1350;SDS011;669;50.206;9.998;2024-03-08T11:31:24;26.40;;;17.70;;
1350;SDS011;669;50.206;9.998;2024-03-08T11:33:54;27.70;;;18.70;;
1350;SDS011;669;50.206;9.998;2024-03-08T11:36:24;21.93;;;16.90;;
1350;SDS011;669;50.206;9.998;2024-03-08T11:38:52;24.83;;;17.17;;
1350;SDS011;669;50.206;9.998;2024-03-08T11:41:24;23.60;;;17.67;;
1350;SDS011;669;50.206;9.998;2024-03-08T11:44:01;22.60;;;17.80;;
1350;SDS011;669;50.206;9.998;2024-03-08T11:46:32;24.23;;;17.90;;
1350;SDS011;669;50.206;9.998;2024-03-08T11:49:01;24.57;;;17.30;;
1350;SDS011;669;50.206;9.998;2024-03-08T11:51:29;24.13;;;17.60;;
1350;SDS011;669;50.206;9.998;2024-03-08T11:53:59;22.93;;;17.70;;
1350;SDS011;669;50.206;9.998;2024-03-08T11:56:28;21.97;;;17.50;;
1350;SDS011;669;50.206;9.998;2024-03-08T11:58:56;23.13;;;17.87;;
1350;SDS011;669;50.206;9.998;2024-03-08T12:01:24;24.40;;;17.20;;
1350;SDS011;669;50.206;9.998;2024-03-08T12:03:54;21.57;;;16.90;;
1350;SDS011;669;50.206;9.998;2024-03-08T12:06:25;23.90;;;17.57;;
1350;SDS011;669;50.206;9.998;2024-03-08T12:08:54;20.53;;;16.40;;
1350;SDS011;669;50.206;9.998;2024-03-08T12:11:22;22.30;;;17.53;;
1350;SDS011;669;50.206;9.998;2024-03-08T12:13:53;22.53;;;16.40;;
1350;SDS011;669;50.206;9.998;2024-03-08T12:16:21;19.13;;;15.03;;
1350;SDS011;669;50.206;9.998;2024-03-08T12:18:51;20.40;;;15.70;;
1350;SDS011;669;50.206;9.998;2024-03-08T12:21:20;15.87;;;14.10;;
1350;SDS011;669;50.206;9.998;2024-03-08T12:23:51;23.00;;;17.03;;
1350;SDS011;669;50.206;9.998;2024-03-08T12:26:30;21.17;;;16.03;;
1350;SDS011;669;50.206;9.998;2024-03-08T12:31:50;19.47;;;15.43;;
1350;SDS011;669;50.206;9.998;2024-03-08T12:34:20;19.60;;;14.70;;
1350;SDS011;669;50.206;9.998;2024-03-08T12:36:50;18.90;;;14.97;;
1350;SDS011;669;50.206;9.998;2024-03-08T12:39:20;19.27;;;14.20;;
1350;SDS011;669;50.206;9.998;2024-03-08T12:41:53;16.73;;;13.43;;
1350;SDS011;669;50.206;9.998;2024-03-08T12:44:24;20.20;;;14.67;;
1350;SDS011;669;50.206;9.998;2024-03-08T12:46:54;17.20;;;14.53;;
1350;SDS011;669;50.206;9.998;2024-03-08T12:49:25;19.67;;;14.93;;
1350;SDS011;669;50.206;9.998;2024-03-08T12:51:53;21.70;;;16.63;;
1350;SDS011;669;50.206;9.998;2024-03-08T12:54:21;21.03;;;14.97;;
1350;SDS011;669;50.206;9.998;2024-03-08T12:56:51;19.17;;;14.27;;
1350;SDS011;669;50.206;9.998;2024-03-08T12:59:21;15.90;;;14.17;;
1350;SDS011;669;50.206;9.998;2024-03-08T13:01:51;19.30;;;14.03;;
1350;SDS011;669;50.206;9.998;2024-03-08T13:04:20;17.80;;;14.17;;
1350;SDS011;669;50.206;9.998;2024-03-08T13:06:49;19.87;;;14.97;;
1350;SDS011;669;50.206;9.998;2024-03-08T13:09:20;19.70;;;14.70;;
1350;SDS011;669;50.206;9.998;2024-03-08T13:11:50;18.73;;;14.23;;
1350;SDS011;669;50.206;9.998;2024-03-08T13:14:20;22.30;;;16.53;;
1350;SDS011;669;50.206;9.998;2024-03-08T13:16:48;19.90;;;15.00;;
1350;SDS011;669;50.206;9.998;2024-03-08T13:19:19;18.53;;;13.57;;
1350;SDS011;669;50.206;9.998;2024-03-08T13:21:48;15.43;;;12.43;;
1350;SDS011;669;50.206;9.998;2024-03-08T13:24:16;20.57;;;15.83;;
1350;SDS011;669;50.206;9.998;2024-03-08T13:26:45;18.60;;;13.90;;
1350;SDS011;669;50.206;9.998;2024-03-08T13:29:14;17.93;;;13.57;;
1350;SDS011;669;50.206;9.998;2024-03-08T13:31:42;20.50;;;15.30;;
1350;SDS011;669;50.206;9.998;2024-03-08T13:34:10;20.53;;;15.27;;
1350;SDS011;669;50.206;9.998;2024-03-08T13:36:39;20.80;;;15.77;;
1350;SDS011;669;50.206;9.998;2024-03-08T13:39:10;20.57;;;14.43;;
1350;SDS011;669;50.206;9.998;2024-03-08T13:41:42;17.03;;;14.73;;
1350;SDS011;669;50.206;9.998;2024-03-08T13:44:11;22.77;;;15.47;;
1350;SDS011;669;50.206;9.998;2024-03-08T13:46:39;21.30;;;16.40;;
1350;SDS011;669;50.206;9.998;2024-03-08T13:49:08;18.53;;;13.87;;
1350;SDS011;669;50.206;9.998;2024-03-08T13:51:37;19.43;;;14.90;;
1350;SDS011;669;50.206;9.998;2024-03-08T13:54:07;17.27;;;14.00;;
1350;SDS011;669;50.206;9.998;2024-03-08T13:56:36;20.23;;;13.70;;
1350;SDS011;669;50.206;9.998;2024-03-08T13:59:04;23.63;;;15.13;;
1350;SDS011;669;50.206;9.998;2024-03-08T14:01:32;18.63;;;13.50;;
1350;SDS011;669;50.206;9.998;2024-03-08T14:04:02;18.40;;;13.67;;
1350;SDS011;669;50.206;9.998;2024-03-08T14:06:31;19.30;;;14.90;;
1350;SDS011;669;50.206;9.998;2024-03-08T14:08:58;18.80;;;13.57;;
1350;SDS011;669;50.206;9.998;2024-03-08T14:11:29;19.17;;;14.47;;
1350;SDS011;669;50.206;9.998;2024-03-08T14:13:57;21.17;;;15.00;;
1350;SDS011;669;50.206;9.998;2024-03-08T14:16:25;19.07;;;12.67;;
1350;SDS011;669;50.206;9.998;2024-03-08T14:18:53;20.47;;;14.80;;
1350;SDS011;669;50.206;9.998;2024-03-08T14:21:22;19.13;;;13.20;;
1350;SDS011;669;50.206;9.998;2024-03-08T14:23:50;19.20;;;14.23;;
1350;SDS011;669;50.206;9.998;2024-03-08T14:26:18;19.70;;;13.93;;
1350;SDS011;669;50.206;9.998;2024-03-08T14:28:48;19.07;;;13.70;;
1350;SDS011;669;50.206;9.998;2024-03-08T14:31:18;18.30;;;12.50;;
1350;SDS011;669;50.206;9.998;2024-03-08T14:33:46;16.43;;;12.50;;
1350;SDS011;669;50.206;9.998;2024-03-08T14:36:15;18.17;;;12.67;;
1350;SDS011;669;50.206;9.998;2024-03-08T14:38:46;13.57;;;11.60;;
1350;SDS011;669;50.206;9.998;2024-03-08T14:41:14;16.60;;;11.90;;
1350;SDS011;669;50.206;9.998;2024-03-08T14:43:42;24.60;;;16.07;;
1350;SDS011;669;50.206;9.998;2024-03-08T14:46:13;15.50;;;12.47;;
1350;SDS011;669;50.206;9.998;2024-03-08T14:48:43;16.67;;;12.70;;
1350;SDS011;669;50.206;9.998;2024-03-08T14:51:16;14.57;;;11.97;;
1350;SDS011;669;50.206;9.998;2024-03-08T14:53:46;14.20;;;11.37;;
1350;SDS011;669;50.206;9.998;2024-03-08T14:56:14;19.40;;;14.50;;
1350;SDS011;669;50.206;9.998;2024-03-08T14:58:43;17.50;;;13.60;;
1350;SDS011;669;50.206;9.998;2024-03-08T15:01:13;16.50;;;12.40;;
1350;SDS011;669;50.206;9.998;2024-03-08T15:03:41;14.40;;;11.50;;
1350;SDS011;669;50.206;9.998;2024-03-08T15:06:10;17.00;;;12.43;;
1350;SDS011;669;50.206;9.998;2024-03-08T15:08:39;16.80;;;11.97;;
1350;SDS011;669;50.206;9.998;2024-03-08T15:11:07;17.30;;;12.50;;
1350;SDS011;669;50.206;9.998;2024-03-08T15:13:35;14.87;;;11.50;;
1350;SDS011;669;50.206;9.998;2024-03-08T15:16:08;12.60;;;10.43;;